sensor_id;sensor_type;location;lat;lon;timestamp;temperature;humidity
13850;DHT22;6995;52.618;13.488;2023-09-12T00:01:33;19.20;48.20
13850;DHT22;6995;52.618;13.488;2023-09-12T00:03:59;19.10;47.80
13850;DHT22;6995;52.618;13.488;2023-09-12T00:06:24;19.10;50.00
13850;DHT22;6995;52.618;13.488;2023-09-12T00:08:51;19.10;52.10
13850;DHT22;6995;52.618;13.488;2023-09-12T00:11:17;19.10;51.40
13850;DHT22;6995;52.618;13.488;2023-09-12T00:13:44;19.10;52.80
13850;DHT22;6995;52.618;13.488;2023-09-12T00:16:10;19.00;54.80
13850;DHT22;6995;52.618;13.488;2023-09-12T00:18:36;19.00;56.90
13850;DHT22;6995;52.618;13.488;2023-09-12T00:21:02;18.90;54.90
13850;DHT22;6995;52.618;13.488;2023-09-12T00:23:28;18.90;60.80
13850;DHT22;6995;52.618;13.488;2023-09-12T00:25:53;18.90;60.70
13850;DHT22;6995;52.618;13.488;2023-09-12T00:28:20;18.90;61.60
13850;DHT22;6995;52.618;13.488;2023-09-12T00:30:46;18.90;59.10
13850;DHT22;6995;52.618;13.488;2023-09-12T00:33:12;18.90;61.70
13850;DHT22;6995;52.618;13.488;2023-09-12T00:35:37;18.90;65.80
13850;DHT22;6995;52.618;13.488;2023-09-12T00:38:03;18.80;66.40
13850;DHT22;6995;52.618;13.488;2023-09-12T00:40:29;18.80;65.20
13850;DHT22;6995;52.618;13.488;2023-09-12T00:42:55;18.80;62.00
13850;DHT22;6995;52.618;13.488;2023-09-12T00:45:28;18.80;63.80
13850;DHT22;6995;52.618;13.488;2023-09-12T00:47:54;18.70;68.50
13850;DHT22;6995;52.618;13.488;2023-09-12T00:50:22;18.70;69.60
13850;DHT22;6995;52.618;13.488;2023-09-12T00:52:49;18.60;70.90
13850;DHT22;6995;52.618;13.488;2023-09-12T00:55:15;18.60;73.80
13850;DHT22;6995;52.618;13.488;2023-09-12T00:57:41;18.60;99.90
13850;DHT22;6995;52.618;13.488;2023-09-12T01:00:10;18.50;75.80
13850;DHT22;6995;52.618;13.488;2023-09-12T01:02:43;18.50;76.70
13850;DHT22;6995;52.618;13.488;2023-09-12T01:05:11;18.50;77.30
13850;DHT22;6995;52.618;13.488;2023-09-12T01:07:38;18.40;80.00
13850;DHT22;6995;52.618;13.488;2023-09-12T01:10:05;18.40;81.60
13850;DHT22;6995;52.618;13.488;2023-09-12T01:12:31;18.50;84.30
13850;DHT22;6995;52.618;13.488;2023-09-12T01:14:57;18.50;81.20
13850;DHT22;6995;52.618;13.488;2023-09-12T01:17:23;18.40;83.30
13850;DHT22;6995;52.618;13.488;2023-09-12T01:19:50;18.40;84.50
13850;DHT22;6995;52.618;13.488;2023-09-12T01:22:35;18.50;84.80
13850;DHT22;6995;52.618;13.488;2023-09-12T01:25:15;18.40;83.10
13850;DHT22;6995;52.618;13.488;2023-09-12T01:27:51;18.40;86.60
13850;DHT22;6995;52.618;13.488;2023-09-12T01:30:20;18.40;85.70
13850;DHT22;6995;52.618;13.488;2023-09-12T01:32:46;18.40;86.20
13850;DHT22;6995;52.618;13.488;2023-09-12T01:35:28;18.40;85.10
13850;DHT22;6995;52.618;13.488;2023-09-12T01:37:54;18.40;84.00
13850;DHT22;6995;52.618;13.488;2023-09-12T01:40:27;18.40;85.50
13850;DHT22;6995;52.618;13.488;2023-09-12T01:42:57;18.30;91.50
13850;DHT22;6995;52.618;13.488;2023-09-12T01:45:25;18.30;86.90
13850;DHT22;6995;52.618;13.488;2023-09-12T01:47:51;18.20;89.20
13850;DHT22;6995;52.618;13.488;2023-09-12T01:50:17;18.30;87.70
13850;DHT22;6995;52.618;13.488;2023-09-12T01:52:44;18.30;87.10
13850;DHT22;6995;52.618;13.488;2023-09-12T01:55:10;18.20;87.90
13850;DHT22;6995;52.618;13.488;2023-09-12T01:57:37;18.20;90.90
13850;DHT22;6995;52.618;13.488;2023-09-12T02:00:04;18.30;90.40
13850;DHT22;6995;52.618;13.488;2023-09-12T02:02:29;18.20;93.80
13850;DHT22;6995;52.618;13.488;2023-09-12T02:05:19;18.20;91.20
13850;DHT22;6995;52.618;13.488;2023-09-12T02:07:46;18.20;92.90
13850;DHT22;6995;52.618;13.488;2023-09-12T02:10:11;18.20;92.00
13850;DHT22;6995;52.618;13.488;2023-09-12T02:12:37;18.20;95.40
13850;DHT22;6995;52.618;13.488;2023-09-12T02:15:04;18.20;95.30
13850;DHT22;6995;52.618;13.488;2023-09-12T02:17:30;18.20;97.20
13850;DHT22;6995;52.618;13.488;2023-09-12T02:19:55;18.20;97.00
13850;DHT22;6995;52.618;13.488;2023-09-12T02:22:21;18.10;98.40
13850;DHT22;6995;52.618;13.488;2023-09-12T02:24:47;18.10;99.90
13850;DHT22;6995;52.618;13.488;2023-09-12T02:27:12;18.10;99.90
13850;DHT22;6995;52.618;13.488;2023-09-12T02:29:41;18.10;98.20
13850;DHT22;6995;52.618;13.488;2023-09-12T02:32:07;18.10;99.80
13850;DHT22;6995;52.618;13.488;2023-09-12T02:34:33;18.00;99.90
13850;DHT22;6995;52.618;13.488;2023-09-12T02:36:59;18.00;99.90
13850;DHT22;6995;52.618;13.488;2023-09-12T02:39:25;18.00;99.90
13850;DHT22;6995;52.618;13.488;2023-09-12T02:41:50;18.00;99.90
13850;DHT22;6995;52.618;13.488;2023-09-12T02:44:16;18.00;99.90
13850;DHT22;6995;52.618;13.488;2023-09-12T02:46:42;18.00;99.90
13850;DHT22;6995;52.618;13.488;2023-09-12T02:49:08;18.00;99.90
13850;DHT22;6995;52.618;13.488;2023-09-12T02:51:33;18.00;99.90
13850;DHT22;6995;52.618;13.488;2023-09-12T02:53:59;18.00;99.90
13850;DHT22;6995;52.618;13.488;2023-09-12T02:56:25;18.00;99.90
13850;DHT22;6995;52.618;13.488;2023-09-12T02:58:50;18.00;99.90
13850;DHT22;6995;52.618;13.488;2023-09-12T03:01:17;18.00;99.90
13850;DHT22;6995;52.618;13.488;2023-09-12T03:03:45;18.00;99.90
13850;DHT22;6995;52.618;13.488;2023-09-12T03:06:12;17.90;99.90
13850;DHT22;6995;52.618;13.488;2023-09-12T03:08:39;17.90;99.90
13850;DHT22;6995;52.618;13.488;2023-09-12T03:11:05;17.90;99.90
13850;DHT22;6995;52.618;13.488;2023-09-12T03:13:33;17.90;99.90
13850;DHT22;6995;52.618;13.488;2023-09-12T03:15:59;17.90;99.90
13850;DHT22;6995;52.618;13.488;2023-09-12T03:18:25;17.90;99.90
13850;DHT22;6995;52.618;13.488;2023-09-12T03:20:50;17.90;99.90
13850;DHT22;6995;52.618;13.488;2023-09-12T03:23:16;17.90;99.90
13850;DHT22;6995;52.618;13.488;2023-09-12T03:25:42;17.90;99.80
13850;DHT22;6995;52.618;13.488;2023-09-12T03:28:08;17.90;99.90
13850;DHT22;6995;52.618;13.488;2023-09-12T03:30:34;17.90;99.90
13850;DHT22;6995;52.618;13.488;2023-09-12T03:33:00;17.80;99.90
13850;DHT22;6995;52.618;13.488;2023-09-12T03:35:27;17.80;99.90
13850;DHT22;6995;52.618;13.488;2023-09-12T03:37:53;17.80;99.90
13850;DHT22;6995;52.618;13.488;2023-09-12T03:40:19;17.80;99.90
13850;DHT22;6995;52.618;13.488;2023-09-12T03:42:45;17.80;99.90
13850;DHT22;6995;52.618;13.488;2023-09-12T03:45:11;17.80;99.90
13850;DHT22;6995;52.618;13.488;2023-09-12T03:47:37;17.80;99.90
13850;DHT22;6995;52.618;13.488;2023-09-12T03:50:03;17.80;99.90
13850;DHT22;6995;52.618;13.488;2023-09-12T03:52:29;17.80;99.90
13850;DHT22;6995;52.618;13.488;2023-09-12T03:54:54;17.70;99.90
13850;DHT22;6995;52.618;13.488;2023-09-12T03:57:20;17.70;99.90
13850;DHT22;6995;52.618;13.488;2023-09-12T03:59:46;17.70;99.90
13850;DHT22;6995;52.618;13.488;2023-09-12T04:02:12;17.70;99.90
13850;DHT22;6995;52.618;13.488;2023-09-12T04:04:38;17.70;99.90
13850;DHT22;6995;52.618;13.488;2023-09-12T04:07:04;17.70;99.90
13850;DHT22;6995;52.618;13.488;2023-09-12T04:09:31;17.80;99.90
13850;DHT22;6995;52.618;13.488;2023-09-12T04:11:57;17.70;99.90
13850;DHT22;6995;52.618;13.488;2023-09-12T04:14:22;17.70;99.90
13850;DHT22;6995;52.618;13.488;2023-09-12T04:16:48;17.60;99.90
13850;DHT22;6995;52.618;13.488;2023-09-12T04:19:14;17.60;99.90
13850;DHT22;6995;52.618;13.488;2023-09-12T04:21:40;17.50;99.90
13850;DHT22;6995;52.618;13.488;2023-09-12T04:24:07;17.50;99.90
13850;DHT22;6995;52.618;13.488;2023-09-12T04:26:32;17.50;99.90
13850;DHT22;6995;52.618;13.488;2023-09-12T04:28:58;17.50;99.90
13850;DHT22;6995;52.618;13.488;2023-09-12T04:31:24;17.50;99.90
13850;DHT22;6995;52.618;13.488;2023-09-12T04:33:53;17.50;99.90
13850;DHT22;6995;52.618;13.488;2023-09-12T04:36:19;17.50;99.90
13850;DHT22;6995;52.618;13.488;2023-09-12T04:38:45;17.60;99.90
13850;DHT22;6995;52.618;13.488;2023-09-12T04:41:13;17.60;99.90
13850;DHT22;6995;52.618;13.488;2023-09-12T04:43:43;17.60;99.90
13850;DHT22;6995;52.618;13.488;2023-09-12T04:46:10;17.70;99.90
13850;DHT22;6995;52.618;13.488;2023-09-12T04:48:37;17.60;99.90
13850;DHT22;6995;52.618;13.488;2023-09-12T04:51:02;17.60;99.90
13850;DHT22;6995;52.618;13.488;2023-09-12T04:53:28;17.60;99.90
13850;DHT22;6995;52.618;13.488;2023-09-12T04:56:00;17.70;99.90
13850;DHT22;6995;52.618;13.488;2023-09-12T04:58:26;17.70;99.90
13850;DHT22;6995;52.618;13.488;2023-09-12T05:00:51;17.80;99.90
13850;DHT22;6995;52.618;13.488;2023-09-12T05:03:17;17.90;99.90
13850;DHT22;6995;52.618;13.488;2023-09-12T05:05:46;17.90;99.90
13850;DHT22;6995;52.618;13.488;2023-09-12T05:08:12;18.00;99.90
13850;DHT22;6995;52.618;13.488;2023-09-12T05:10:38;18.00;99.90
13850;DHT22;6995;52.618;13.488;2023-09-12T05:13:05;18.10;99.90
13850;DHT22;6995;52.618;13.488;2023-09-12T05:15:31;18.20;99.90
13850;DHT22;6995;52.618;13.488;2023-09-12T05:17:56;18.20;99.90
13850;DHT22;6995;52.618;13.488;2023-09-12T05:20:22;18.40;99.90
13850;DHT22;6995;52.618;13.488;2023-09-12T05:22:48;18.50;99.90
13850;DHT22;6995;52.618;13.488;2023-09-12T05:25:14;18.60;99.90
13850;DHT22;6995;52.618;13.488;2023-09-12T05:27:39;18.60;99.90
13850;DHT22;6995;52.618;13.488;2023-09-12T05:30:05;18.70;99.90
13850;DHT22;6995;52.618;13.488;2023-09-12T05:32:49;18.80;99.90
13850;DHT22;6995;52.618;13.488;2023-09-12T05:35:14;18.80;99.90
13850;DHT22;6995;52.618;13.488;2023-09-12T05:37:40;18.90;99.90
13850;DHT22;6995;52.618;13.488;2023-09-12T05:40:06;19.00;99.90
13850;DHT22;6995;52.618;13.488;2023-09-12T05:42:32;19.00;99.90
13850;DHT22;6995;52.618;13.488;2023-09-12T05:44:57;19.10;99.90
13850;DHT22;6995;52.618;13.488;2023-09-12T05:47:23;19.20;98.60
13850;DHT22;6995;52.618;13.488;2023-09-12T05:49:49;19.30;98.80
13850;DHT22;6995;52.618;13.488;2023-09-12T05:52:15;19.40;94.50
13850;DHT22;6995;52.618;13.488;2023-09-12T05:54:41;19.50;92.50
13850;DHT22;6995;52.618;13.488;2023-09-12T05:57:07;19.60;84.40
13850;DHT22;6995;52.618;13.488;2023-09-12T05:59:36;19.60;85.90
13850;DHT22;6995;52.618;13.488;2023-09-12T06:02:03;19.60;92.60
13850;DHT22;6995;52.618;13.488;2023-09-12T06:04:30;19.60;93.70
13850;DHT22;6995;52.618;13.488;2023-09-12T06:06:55;19.50;95.40
13850;DHT22;6995;52.618;13.488;2023-09-12T06:09:21;19.50;98.00
13850;DHT22;6995;52.618;13.488;2023-09-12T06:11:47;19.50;99.90
13850;DHT22;6995;52.618;13.488;2023-09-12T06:14:12;19.60;96.40
13850;DHT22;6995;52.618;13.488;2023-09-12T06:16:38;19.70;91.90
13850;DHT22;6995;52.618;13.488;2023-09-12T06:19:03;19.90;91.10
13850;DHT22;6995;52.618;13.488;2023-09-12T06:21:29;20.00;76.00
13850;DHT22;6995;52.618;13.488;2023-09-12T06:24:19;20.20;76.70
13850;DHT22;6995;52.618;13.488;2023-09-12T06:26:46;20.40;73.90
13850;DHT22;6995;52.618;13.488;2023-09-12T06:29:12;20.70;99.90
13850;DHT22;6995;52.618;13.488;2023-09-12T06:31:39;20.80;64.90
13850;DHT22;6995;52.618;13.488;2023-09-12T06:34:07;21.00;63.80
13850;DHT22;6995;52.618;13.488;2023-09-12T06:36:33;21.10;56.60
13850;DHT22;6995;52.618;13.488;2023-09-12T06:38:59;21.10;53.60
13850;DHT22;6995;52.618;13.488;2023-09-12T06:41:26;21.20;41.90
13850;DHT22;6995;52.618;13.488;2023-09-12T06:43:52;21.30;42.20
13850;DHT22;6995;52.618;13.488;2023-09-12T06:46:18;21.40;40.60
13850;DHT22;6995;52.618;13.488;2023-09-12T06:48:47;21.50;40.00
13850;DHT22;6995;52.618;13.488;2023-09-12T06:51:14;21.70;38.60
13850;DHT22;6995;52.618;13.488;2023-09-12T06:53:40;21.90;36.10
13850;DHT22;6995;52.618;13.488;2023-09-12T06:56:06;22.00;33.90
13850;DHT22;6995;52.618;13.488;2023-09-12T06:58:32;22.10;28.70
13850;DHT22;6995;52.618;13.488;2023-09-12T07:01:17;22.10;23.50
13850;DHT22;6995;52.618;13.488;2023-09-12T07:03:42;22.30;30.00
13850;DHT22;6995;52.618;13.488;2023-09-12T07:06:10;22.40;28.70
13850;DHT22;6995;52.618;13.488;2023-09-12T07:08:36;22.50;49.00
13850;DHT22;6995;52.618;13.488;2023-09-12T07:11:02;22.60;7.80
13850;DHT22;6995;52.618;13.488;2023-09-12T07:13:32;22.80;23.60
13850;DHT22;6995;52.618;13.488;2023-09-12T07:15:58;23.00;1.00
13850;DHT22;6995;52.618;13.488;2023-09-12T07:18:24;23.10;1.00
13850;DHT22;6995;52.618;13.488;2023-09-12T07:21:04;23.00;1.00
13850;DHT22;6995;52.618;13.488;2023-09-12T07:23:30;23.10;1.00
13850;DHT22;6995;52.618;13.488;2023-09-12T07:25:56;23.10;1.00
13850;DHT22;6995;52.618;13.488;2023-09-12T07:28:25;23.10;1.00
13850;DHT22;6995;52.618;13.488;2023-09-12T07:30:51;23.20;1.00
13850;DHT22;6995;52.618;13.488;2023-09-12T07:33:17;23.40;1.00
13850;DHT22;6995;52.618;13.488;2023-09-12T07:35:42;23.40;1.00
13850;DHT22;6995;52.618;13.488;2023-09-12T07:38:08;23.50;1.00
13850;DHT22;6995;52.618;13.488;2023-09-12T07:40:34;23.60;1.00
13850;DHT22;6995;52.618;13.488;2023-09-12T07:43:03;23.70;1.00
13850;DHT22;6995;52.618;13.488;2023-09-12T07:45:28;23.80;1.00
13850;DHT22;6995;52.618;13.488;2023-09-12T07:47:56;23.80;1.00
13850;DHT22;6995;52.618;13.488;2023-09-12T07:50:22;23.80;1.00
13850;DHT22;6995;52.618;13.488;2023-09-12T07:52:47;23.80;1.00
13850;DHT22;6995;52.618;13.488;2023-09-12T07:55:13;23.80;1.00
13850;DHT22;6995;52.618;13.488;2023-09-12T07:57:39;23.80;1.00
13850;DHT22;6995;52.618;13.488;2023-09-12T08:00:05;23.80;1.00
13850;DHT22;6995;52.618;13.488;2023-09-12T08:02:34;24.00;1.00
13850;DHT22;6995;52.618;13.488;2023-09-12T08:05:00;24.00;1.00
13850;DHT22;6995;52.618;13.488;2023-09-12T08:07:29;24.00;1.00
13850;DHT22;6995;52.618;13.488;2023-09-12T08:09:56;24.10;1.00
13850;DHT22;6995;52.618;13.488;2023-09-12T08:12:26;24.10;1.00
13850;DHT22;6995;52.618;13.488;2023-09-12T08:14:53;24.20;1.00
13850;DHT22;6995;52.618;13.488;2023-09-12T08:17:19;24.20;1.00
13850;DHT22;6995;52.618;13.488;2023-09-12T08:19:45;24.20;1.00
13850;DHT22;6995;52.618;13.488;2023-09-12T08:22:12;24.30;1.00
13850;DHT22;6995;52.618;13.488;2023-09-12T08:24:40;24.40;1.00
13850;DHT22;6995;52.618;13.488;2023-09-12T08:27:06;24.50;1.00
13850;DHT22;6995;52.618;13.488;2023-09-12T08:29:33;24.60;1.00
13850;DHT22;6995;52.618;13.488;2023-09-12T08:32:00;24.70;1.00
13850;DHT22;6995;52.618;13.488;2023-09-12T08:34:26;24.80;1.00
13850;DHT22;6995;52.618;13.488;2023-09-12T08:36:52;24.90;1.00
13850;DHT22;6995;52.618;13.488;2023-09-12T08:39:24;24.90;1.00
13850;DHT22;6995;52.618;13.488;2023-09-12T08:41:51;25.00;1.00
13850;DHT22;6995;52.618;13.488;2023-09-12T08:44:17;25.10;1.00
13850;DHT22;6995;52.618;13.488;2023-09-12T08:46:44;25.20;1.00
13850;DHT22;6995;52.618;13.488;2023-09-12T08:49:10;25.20;1.00
13850;DHT22;6995;52.618;13.488;2023-09-12T08:51:40;25.40;1.00
13850;DHT22;6995;52.618;13.488;2023-09-12T08:54:07;25.50;1.00
13850;DHT22;6995;52.618;13.488;2023-09-12T08:56:35;25.60;1.00
13850;DHT22;6995;52.618;13.488;2023-09-12T08:59:02;25.60;1.00
13850;DHT22;6995;52.618;13.488;2023-09-12T09:01:30;25.70;1.00
13850;DHT22;6995;52.618;13.488;2023-09-12T09:03:57;25.80;1.00
13850;DHT22;6995;52.618;13.488;2023-09-12T09:06:23;25.80;1.00
13850;DHT22;6995;52.618;13.488;2023-09-12T09:08:49;25.90;1.00
13850;DHT22;6995;52.618;13.488;2023-09-12T09:11:16;25.90;1.00
13850;DHT22;6995;52.618;13.488;2023-09-12T09:13:42;26.00;1.00
13850;DHT22;6995;52.618;13.488;2023-09-12T09:16:15;26.10;1.00
13850;DHT22;6995;52.618;13.488;2023-09-12T09:19:02;26.30;1.00
13850;DHT22;6995;52.618;13.488;2023-09-12T09:21:33;26.40;1.00
13850;DHT22;6995;52.618;13.488;2023-09-12T09:24:01;26.40;1.00
13850;DHT22;6995;52.618;13.488;2023-09-12T09:26:49;26.60;1.00
13850;DHT22;6995;52.618;13.488;2023-09-12T09:29:21;26.70;1.00
13850;DHT22;6995;52.618;13.488;2023-09-12T09:31:50;26.80;1.00
13850;DHT22;6995;52.618;13.488;2023-09-12T09:34:18;26.80;1.00
13850;DHT22;6995;52.618;13.488;2023-09-12T09:36:48;26.80;1.00
13850;DHT22;6995;52.618;13.488;2023-09-12T09:39:16;26.80;1.00
13850;DHT22;6995;52.618;13.488;2023-09-12T09:41:42;26.80;1.00
13850;DHT22;6995;52.618;13.488;2023-09-12T09:44:13;26.80;1.00
13850;DHT22;6995;52.618;13.488;2023-09-12T09:46:43;26.90;1.00
13850;DHT22;6995;52.618;13.488;2023-09-12T09:49:10;27.10;1.00
13850;DHT22;6995;52.618;13.488;2023-09-12T09:51:43;26.90;1.00
13850;DHT22;6995;52.618;13.488;2023-09-12T09:54:12;26.70;1.00
13850;DHT22;6995;52.618;13.488;2023-09-12T09:56:53;26.90;1.00
13850;DHT22;6995;52.618;13.488;2023-09-12T09:59:26;26.80;1.00
13850;DHT22;6995;52.618;13.488;2023-09-12T10:02:14;26.90;1.00
13850;DHT22;6995;52.618;13.488;2023-09-12T10:04:41;26.90;1.00
13850;DHT22;6995;52.618;13.488;2023-09-12T10:07:09;26.90;1.00
13850;DHT22;6995;52.618;13.488;2023-09-12T10:09:35;26.90;1.00
13850;DHT22;6995;52.618;13.488;2023-09-12T10:12:02;26.90;1.00
13850;DHT22;6995;52.618;13.488;2023-09-12T10:14:28;26.90;1.00
13850;DHT22;6995;52.618;13.488;2023-09-12T10:17:00;26.90;1.00
13850;DHT22;6995;52.618;13.488;2023-09-12T10:19:46;27.00;1.00
13850;DHT22;6995;52.618;13.488;2023-09-12T10:22:28;27.10;1.00
13850;DHT22;6995;52.618;13.488;2023-09-12T10:24:56;27.10;1.00
13850;DHT22;6995;52.618;13.488;2023-09-12T10:27:24;27.10;1.00
13850;DHT22;6995;52.618;13.488;2023-09-12T10:29:51;27.10;1.00
13850;DHT22;6995;52.618;13.488;2023-09-12T10:32:19;27.40;1.00
13850;DHT22;6995;52.618;13.488;2023-09-12T10:34:46;27.40;1.00
13850;DHT22;6995;52.618;13.488;2023-09-12T10:37:17;27.40;1.00
13850;DHT22;6995;52.618;13.488;2023-09-12T10:39:45;27.50;1.00
13850;DHT22;6995;52.618;13.488;2023-09-12T10:42:12;27.60;1.00
13850;DHT22;6995;52.618;13.488;2023-09-12T10:44:38;27.60;1.00
13850;DHT22;6995;52.618;13.488;2023-09-12T10:47:05;27.70;1.00
13850;DHT22;6995;52.618;13.488;2023-09-12T10:49:31;27.70;1.00
13850;DHT22;6995;52.618;13.488;2023-09-12T10:51:57;27.70;1.00
13850;DHT22;6995;52.618;13.488;2023-09-12T10:54:39;27.80;1.00
13850;DHT22;6995;52.618;13.488;2023-09-12T10:57:11;27.90;1.00
13850;DHT22;6995;52.618;13.488;2023-09-12T11:02:32;28.20;1.00
13850;DHT22;6995;52.618;13.488;2023-09-12T11:04:59;28.10;1.00
13850;DHT22;6995;52.618;13.488;2023-09-12T11:10:18;28.20;1.00
13850;DHT22;6995;52.618;13.488;2023-09-12T11:12:45;28.30;1.00
13850;DHT22;6995;52.618;13.488;2023-09-12T11:15:11;28.30;1.00
13850;DHT22;6995;52.618;13.488;2023-09-12T11:17:38;28.30;1.00
13850;DHT22;6995;52.618;13.488;2023-09-12T11:20:04;28.40;1.00
13850;DHT22;6995;52.618;13.488;2023-09-12T11:22:43;28.60;1.00
13850;DHT22;6995;52.618;13.488;2023-09-12T11:25:22;28.80;1.00
13850;DHT22;6995;52.618;13.488;2023-09-12T11:30:18;28.60;1.00
13850;DHT22;6995;52.618;13.488;2023-09-12T11:32:46;28.70;1.00
13850;DHT22;6995;52.618;13.488;2023-09-12T11:35:13;28.80;1.00
13850;DHT22;6995;52.618;13.488;2023-09-12T11:37:39;28.70;1.00
13850;DHT22;6995;52.618;13.488;2023-09-12T11:42:42;29.10;1.00
13850;DHT22;6995;52.618;13.488;2023-09-12T11:45:11;29.20;1.00
13850;DHT22;6995;52.618;13.488;2023-09-12T11:47:41;29.30;1.00
13850;DHT22;6995;52.618;13.488;2023-09-12T11:50:08;29.30;1.00
13850;DHT22;6995;52.618;13.488;2023-09-12T11:52:36;29.10;1.00
13850;DHT22;6995;52.618;13.488;2023-09-12T11:55:05;29.30;1.00
13850;DHT22;6995;52.618;13.488;2023-09-12T11:57:31;29.40;1.00
13850;DHT22;6995;52.618;13.488;2023-09-12T11:59:57;29.50;1.00
13850;DHT22;6995;52.618;13.488;2023-09-12T12:02:23;29.30;1.00
13850;DHT22;6995;52.618;13.488;2023-09-12T12:04:50;29.20;1.00
13850;DHT22;6995;52.618;13.488;2023-09-12T12:07:16;29.20;1.00
13850;DHT22;6995;52.618;13.488;2023-09-12T12:09:41;29.40;1.00
13850;DHT22;6995;52.618;13.488;2023-09-12T12:12:11;29.50;1.00
13850;DHT22;6995;52.618;13.488;2023-09-12T12:14:38;29.40;1.00
13850;DHT22;6995;52.618;13.488;2023-09-12T12:17:10;29.60;1.00
13850;DHT22;6995;52.618;13.488;2023-09-12T12:19:39;29.50;1.00
13850;DHT22;6995;52.618;13.488;2023-09-12T12:22:05;29.70;1.00
13850;DHT22;6995;52.618;13.488;2023-09-12T12:24:45;29.80;1.00
13850;DHT22;6995;52.618;13.488;2023-09-12T12:27:10;30.10;1.00
13850;DHT22;6995;52.618;13.488;2023-09-12T12:29:37;30.40;1.00
13850;DHT22;6995;52.618;13.488;2023-09-12T12:32:05;30.30;1.00
13850;DHT22;6995;52.618;13.488;2023-09-12T12:34:34;30.40;1.00
13850;DHT22;6995;52.618;13.488;2023-09-12T12:37:00;30.90;1.00
13850;DHT22;6995;52.618;13.488;2023-09-12T12:39:26;31.10;1.00
13850;DHT22;6995;52.618;13.488;2023-09-12T12:41:52;31.30;1.00
13850;DHT22;6995;52.618;13.488;2023-09-12T12:44:19;31.70;1.00
13850;DHT22;6995;52.618;13.488;2023-09-12T12:46:51;31.70;1.00
13850;DHT22;6995;52.618;13.488;2023-09-12T12:49:18;31.80;1.00
13850;DHT22;6995;52.618;13.488;2023-09-12T12:51:44;32.30;1.00
13850;DHT22;6995;52.618;13.488;2023-09-12T12:54:10;32.60;1.00
13850;DHT22;6995;52.618;13.488;2023-09-12T12:56:39;33.10;1.00
13850;DHT22;6995;52.618;13.488;2023-09-12T12:59:07;32.80;1.00
13850;DHT22;6995;52.618;13.488;2023-09-12T13:01:37;32.90;1.00
13850;DHT22;6995;52.618;13.488;2023-09-12T13:04:10;33.40;1.00
13850;DHT22;6995;52.618;13.488;2023-09-12T13:06:36;34.30;1.00
13850;DHT22;6995;52.618;13.488;2023-09-12T13:09:03;34.30;1.00
13850;DHT22;6995;52.618;13.488;2023-09-12T13:11:31;34.80;1.00
13850;DHT22;6995;52.618;13.488;2023-09-12T13:14:00;35.00;1.00
13850;DHT22;6995;52.618;13.488;2023-09-12T13:16:26;34.70;1.00
13850;DHT22;6995;52.618;13.488;2023-09-12T13:18:51;35.20;1.00
13850;DHT22;6995;52.618;13.488;2023-09-12T13:21:17;35.50;1.00
13850;DHT22;6995;52.618;13.488;2023-09-12T13:23:43;35.90;1.00
13850;DHT22;6995;52.618;13.488;2023-09-12T13:26:09;36.10;1.00
13850;DHT22;6995;52.618;13.488;2023-09-12T13:28:36;36.20;1.00
13850;DHT22;6995;52.618;13.488;2023-09-12T13:31:02;36.30;1.00
13850;DHT22;6995;52.618;13.488;2023-09-12T13:33:28;36.30;1.00
13850;DHT22;6995;52.618;13.488;2023-09-12T13:35:54;36.10;1.00
13850;DHT22;6995;52.618;13.488;2023-09-12T13:38:20;36.30;1.00
13850;DHT22;6995;52.618;13.488;2023-09-12T13:40:47;36.80;1.00
13850;DHT22;6995;52.618;13.488;2023-09-12T13:43:12;36.80;1.00
13850;DHT22;6995;52.618;13.488;2023-09-12T13:45:38;37.10;1.00
13850;DHT22;6995;52.618;13.488;2023-09-12T13:48:05;37.00;1.00
13850;DHT22;6995;52.618;13.488;2023-09-12T13:50:31;37.00;1.00
13850;DHT22;6995;52.618;13.488;2023-09-12T13:52:58;36.50;1.00
13850;DHT22;6995;52.618;13.488;2023-09-12T13:55:25;36.40;1.00
13850;DHT22;6995;52.618;13.488;2023-09-12T13:57:50;35.30;1.00
13850;DHT22;6995;52.618;13.488;2023-09-12T14:00:16;35.30;1.00
13850;DHT22;6995;52.618;13.488;2023-09-12T14:02:42;34.60;1.00
13850;DHT22;6995;52.618;13.488;2023-09-12T14:05:11;34.50;1.00
13850;DHT22;6995;52.618;13.488;2023-09-12T14:07:37;34.90;1.00
13850;DHT22;6995;52.618;13.488;2023-09-12T14:10:04;35.60;1.00
13850;DHT22;6995;52.618;13.488;2023-09-12T14:12:29;35.60;1.00
13850;DHT22;6995;52.618;13.488;2023-09-12T14:14:55;35.70;1.00
13850;DHT22;6995;52.618;13.488;2023-09-12T14:17:21;35.80;1.00
13850;DHT22;6995;52.618;13.488;2023-09-12T14:19:46;35.20;1.00
13850;DHT22;6995;52.618;13.488;2023-09-12T14:22:12;35.40;1.00
13850;DHT22;6995;52.618;13.488;2023-09-12T14:24:38;35.70;1.00
13850;DHT22;6995;52.618;13.488;2023-09-12T14:27:04;34.80;1.00
13850;DHT22;6995;52.618;13.488;2023-09-12T14:29:30;34.10;1.00
13850;DHT22;6995;52.618;13.488;2023-09-12T14:31:56;34.00;1.00
13850;DHT22;6995;52.618;13.488;2023-09-12T14:34:30;34.40;1.00
13850;DHT22;6995;52.618;13.488;2023-09-12T14:36:58;34.10;1.00
13850;DHT22;6995;52.618;13.488;2023-09-12T14:39:24;34.20;1.00
13850;DHT22;6995;52.618;13.488;2023-09-12T14:41:50;33.40;1.00
13850;DHT22;6995;52.618;13.488;2023-09-12T14:44:20;32.90;1.00
13850;DHT22;6995;52.618;13.488;2023-09-12T14:46:46;32.00;1.00
13850;DHT22;6995;52.618;13.488;2023-09-12T14:49:12;31.40;1.00
13850;DHT22;6995;52.618;13.488;2023-09-12T14:51:40;31.00;1.00
13850;DHT22;6995;52.618;13.488;2023-09-12T14:54:06;30.20;1.00
13850;DHT22;6995;52.618;13.488;2023-09-12T14:56:33;30.40;1.00
13850;DHT22;6995;52.618;13.488;2023-09-12T14:59:00;30.30;1.00
13850;DHT22;6995;52.618;13.488;2023-09-12T15:01:26;29.90;1.00
13850;DHT22;6995;52.618;13.488;2023-09-12T15:03:53;29.50;1.00
13850;DHT22;6995;52.618;13.488;2023-09-12T15:06:19;28.60;1.00
13850;DHT22;6995;52.618;13.488;2023-09-12T15:08:45;28.30;1.00
13850;DHT22;6995;52.618;13.488;2023-09-12T15:11:11;28.10;1.00
13850;DHT22;6995;52.618;13.488;2023-09-12T15:13:37;27.90;1.00
13850;DHT22;6995;52.618;13.488;2023-09-12T15:16:04;28.20;1.00
13850;DHT22;6995;52.618;13.488;2023-09-12T15:18:30;28.10;1.00
13850;DHT22;6995;52.618;13.488;2023-09-12T15:20:57;27.90;1.00
13850;DHT22;6995;52.618;13.488;2023-09-12T15:23:23;27.80;1.00
13850;DHT22;6995;52.618;13.488;2023-09-12T15:25:50;28.00;1.00
13850;DHT22;6995;52.618;13.488;2023-09-12T15:28:16;27.90;1.00
13850;DHT22;6995;52.618;13.488;2023-09-12T15:30:41;28.00;1.00
13850;DHT22;6995;52.618;13.488;2023-09-12T15:33:07;27.80;1.00
13850;DHT22;6995;52.618;13.488;2023-09-12T15:35:36;28.00;1.00
13850;DHT22;6995;52.618;13.488;2023-09-12T15:38:18;28.20;1.00
13850;DHT22;6995;52.618;13.488;2023-09-12T15:40:44;27.90;1.00
13850;DHT22;6995;52.618;13.488;2023-09-12T15:43:10;27.80;1.00
13850;DHT22;6995;52.618;13.488;2023-09-12T15:45:36;27.80;1.00
13850;DHT22;6995;52.618;13.488;2023-09-12T15:48:02;27.60;1.00
13850;DHT22;6995;52.618;13.488;2023-09-12T15:50:27;27.50;1.00
13850;DHT22;6995;52.618;13.488;2023-09-12T15:52:55;27.50;1.00